createdAt,value
2023-02-28T00:02:31.579Z,5.73
2023-02-28T00:05:19.808Z,5.90
2023-02-28T00:08:05.129Z,5.00
2023-02-28T00:10:50.242Z,5.13
2023-02-28T00:13:40.048Z,5.37
2023-02-28T00:16:24.995Z,5.57
2023-02-28T00:19:10.206Z,5.60
2023-02-28T00:21:55.646Z,6.20
2023-02-28T00:24:40.520Z,5.77
2023-02-28T00:27:25.442Z,5.97
2023-02-28T00:30:19.420Z,6.63
2023-02-28T00:33:04.287Z,6.57
2023-02-28T00:35:49.949Z,6.77
2023-02-28T00:38:35.406Z,6.90
2023-02-28T00:41:20.395Z,7.33
2023-02-28T00:44:06.040Z,7.57
2023-02-28T00:46:51.135Z,7.60
2023-02-28T00:49:36.732Z,7.30
2023-02-28T00:52:21.578Z,6.77
2023-02-28T00:55:06.542Z,7.13
2023-02-28T00:57:52.082Z,6.53
2023-02-28T01:00:37.303Z,6.70
2023-02-28T01:03:24.674Z,6.67
2023-02-28T01:06:10.132Z,6.43
2023-02-28T01:08:55.532Z,6.40
2023-02-28T01:11:40.537Z,7.10
2023-02-28T01:14:25.984Z,6.77
2023-02-28T01:17:10.953Z,6.90
2023-02-28T01:19:56.499Z,7.03
2023-02-28T01:22:41.731Z,7.17
2023-02-28T01:25:26.530Z,7.20
2023-02-28T01:28:12.086Z,7.23
2023-02-28T01:30:57.339Z,6.80
2023-02-28T01:33:42.861Z,7.07
2023-02-28T01:36:28.060Z,7.33
2023-02-28T01:39:13.471Z,6.90
2023-02-28T01:41:58.843Z,6.97
2023-02-28T01:45:05.742Z,6.97
2023-02-28T01:47:55.154Z,6.63
2023-02-28T01:50:44.444Z,7.00
2023-02-28T01:53:40.162Z,6.93
2023-02-28T01:56:29.836Z,6.30
2023-02-28T01:59:26.363Z,7.10
2023-02-28T02:02:11.640Z,6.30
2023-02-28T02:05:06.208Z,6.73
2023-02-28T02:07:55.528Z,6.17
2023-02-28T02:10:45.282Z,6.77
2023-02-28T02:13:59.692Z,6.30
2023-02-28T02:16:47.595Z,6.00
2023-02-28T02:19:54.412Z,6.00
2023-02-28T02:23:08.594Z,6.03
2023-02-28T02:26:13.030Z,7.90
2023-02-28T02:29:13.618Z,7.60
2023-02-28T02:32:28.074Z,7.47
2023-02-28T02:35:23.910Z,7.93
2023-02-28T02:38:17.950Z,6.40
2023-02-28T02:41:10.889Z,7.30
2023-02-28T02:44:21.979Z,6.97
2023-02-28T02:47:16.088Z,6.90
2023-02-28T02:50:05.752Z,7.30
2023-02-28T02:52:56.759Z,7.40
2023-02-28T02:55:45.718Z,7.47
2023-02-28T02:58:34.722Z,7.23
2023-02-28T03:01:23.763Z,6.77
2023-02-28T03:04:14.017Z,6.90
2023-02-28T03:06:59.352Z,6.83
2023-02-28T03:09:55.588Z,7.30
2023-02-28T03:12:51.837Z,6.67
2023-02-28T03:16:08.699Z,7.90
2023-02-28T03:19:31.890Z,7.63
2023-02-28T03:22:35.758Z,7.60
2023-02-28T03:25:56.731Z,7.13
2023-02-28T03:28:57.342Z,6.90
2023-02-28T03:31:48.452Z,7.27
2023-02-28T03:34:39.358Z,7.27
2023-02-28T03:37:28.788Z,7.23
2023-02-28T03:40:17.966Z,6.80
2023-02-28T03:43:10.527Z,6.80
2023-02-28T03:45:57.300Z,7.40
2023-02-28T03:49:02.392Z,7.60
2023-02-28T03:51:51.575Z,7.40
2023-02-28T03:54:47.618Z,7.57
2023-02-28T03:57:41.005Z,7.27
2023-02-28T04:00:32.623Z,6.60
2023-02-28T04:03:18.269Z,6.93
2023-02-28T04:06:04.806Z,7.60
2023-02-28T04:08:51.214Z,7.93
2023-02-28T04:11:42.779Z,7.53
2023-02-28T04:14:27.841Z,7.37
2023-02-28T04:17:13.350Z,7.40
2023-02-28T04:19:58.310Z,7.63
2023-02-28T04:22:43.140Z,6.73
2023-02-28T04:25:28.067Z,7.20
2023-02-28T04:28:13.436Z,7.10
2023-02-28T04:31:01.032Z,7.30
2023-02-28T04:33:46.064Z,7.33
2023-02-28T04:36:31.078Z,6.80
2023-02-28T04:39:19.454Z,6.73
2023-02-28T04:42:04.954Z,7.20
2023-02-28T04:44:50.167Z,7.37
2023-02-28T04:47:35.147Z,7.13
2023-02-28T04:50:20.497Z,7.00
2023-02-28T04:53:06.028Z,7.80
2023-02-28T04:55:50.896Z,7.53
2023-02-28T04:58:36.236Z,7.73
2023-02-28T05:01:21.119Z,7.80
2023-02-28T05:04:06.129Z,9.07
2023-02-28T05:06:51.143Z,7.93
2023-02-28T05:09:36.243Z,8.17
2023-02-28T05:12:21.414Z,7.90
2023-02-28T05:15:06.898Z,7.63
2023-02-28T05:17:52.184Z,7.60
2023-02-28T05:20:37.106Z,8.20
2023-02-28T05:23:23.658Z,7.90
2023-02-28T05:26:08.878Z,7.90
2023-02-28T05:28:53.822Z,7.90
2023-02-28T05:31:39.448Z,7.90
2023-02-28T05:34:24.414Z,7.20
2023-02-28T05:37:13.458Z,7.57
2023-02-28T05:39:58.826Z,7.23
2023-02-28T05:42:43.828Z,7.27
2023-02-28T05:45:29.057Z,7.40
2023-02-28T05:48:14.510Z,7.80
2023-02-28T05:50:59.371Z,7.80
2023-02-28T05:53:44.874Z,7.83
2023-02-28T05:56:30.226Z,7.93
2023-02-28T05:59:15.513Z,7.57
2023-02-28T06:02:00.925Z,8.57
2023-02-28T06:04:46.346Z,8.07
2023-02-28T06:07:31.622Z,8.20
2023-02-28T06:10:17.092Z,8.40
2023-02-28T06:13:04.192Z,8.70
2023-02-28T06:15:49.504Z,7.77
2023-02-28T06:18:34.684Z,9.07
2023-02-28T06:21:20.064Z,8.53
2023-02-28T06:24:05.686Z,8.10
2023-02-28T06:26:51.527Z,8.57
2023-02-28T06:29:37.327Z,9.07
2023-02-28T06:32:23.417Z,9.37
2023-02-28T06:35:09.220Z,7.87
2023-02-28T06:37:54.166Z,8.90
2023-02-28T06:40:39.855Z,9.23
2023-02-28T06:43:30.569Z,8.07
2023-02-28T06:46:15.550Z,7.63
2023-02-28T06:49:00.868Z,7.30
2023-02-28T06:51:46.089Z,7.03
2023-02-28T06:54:31.081Z,7.00
2023-02-28T06:57:16.574Z,6.50
2023-02-28T07:00:05.394Z,7.07
2023-02-28T07:02:50.324Z,7.00
2023-02-28T07:05:39.449Z,6.97
2023-02-28T07:08:26.001Z,6.80
2023-02-28T07:11:11.486Z,7.63
2023-02-28T07:13:57.020Z,7.30
2023-02-28T07:16:42.274Z,7.50
2023-02-28T07:19:27.713Z,7.40
2023-02-28T07:22:15.490Z,7.20
2023-02-28T07:25:00.972Z,6.83
2023-02-28T07:27:46.190Z,6.87
2023-02-28T07:30:31.466Z,8.53
2023-02-28T07:33:17.343Z,7.77
2023-02-28T07:36:05.285Z,7.40
2023-02-28T07:38:50.160Z,7.10
2023-02-28T07:41:35.927Z,7.70
2023-02-28T07:44:21.035Z,7.07
2023-02-28T07:47:06.161Z,7.67
2023-02-28T07:49:51.510Z,7.50
2023-02-28T07:52:39.990Z,7.00
2023-02-28T07:55:25.221Z,7.40
2023-02-28T07:58:10.063Z,6.77
2023-02-28T08:01:05.331Z,7.63
2023-02-28T08:03:50.442Z,7.23
2023-02-28T08:06:35.424Z,6.83
2023-02-28T08:09:21.249Z,7.30
2023-02-28T08:12:08.158Z,6.60
2023-02-28T08:14:53.700Z,7.03
2023-02-28T08:17:39.021Z,6.47
2023-02-28T08:20:25.801Z,8.53
2023-02-28T08:23:11.030Z,7.20
2023-02-28T08:25:57.103Z,5.70
2023-02-28T08:28:42.681Z,6.07
2023-02-28T08:31:28.414Z,5.10
2023-02-28T08:34:15.635Z,4.73
2023-02-28T08:37:00.800Z,4.70
2023-02-28T08:39:46.101Z,4.57
2023-02-28T08:42:33.422Z,4.77
2023-02-28T08:45:18.464Z,4.30
2023-02-28T08:48:03.960Z,3.70
2023-02-28T08:51:08.521Z,6.80
2023-02-28T08:53:55.417Z,4.57
2023-02-28T08:56:40.938Z,3.60
2023-02-28T08:59:26.573Z,3.90
2023-02-28T09:02:14.119Z,3.10
2023-02-28T09:04:59.612Z,2.60
2023-02-28T09:07:44.777Z,2.60
2023-02-28T09:10:29.682Z,2.47
2023-02-28T09:13:14.670Z,2.30
2023-02-28T09:16:02.511Z,2.60
2023-02-28T09:18:48.321Z,2.50
2023-02-28T09:21:33.717Z,2.37
2023-02-28T09:24:19.006Z,2.47
2023-02-28T09:27:05.835Z,2.10
2023-02-28T09:29:51.126Z,2.37
2023-02-28T09:32:36.305Z,2.73
2023-02-28T09:35:22.805Z,2.87
2023-02-28T09:38:08.112Z,3.50
2023-02-28T09:40:56.830Z,2.90
2023-02-28T09:43:47.714Z,2.40
2023-02-28T09:46:43.827Z,2.70
2023-02-28T09:49:43.266Z,2.50
2023-02-28T09:52:33.433Z,2.77
2023-02-28T09:55:46.447Z,3.30
2023-02-28T09:58:48.057Z,3.50
2023-02-28T10:01:44.296Z,3.00
2023-02-28T10:04:55.534Z,2.50
2023-02-28T10:08:20.208Z,3.07
2023-02-28T10:11:09.058Z,2.50
2023-02-28T10:14:05.843Z,2.83
2023-02-28T10:16:59.286Z,4.90
2023-02-28T10:19:51.255Z,2.60
2023-02-28T10:22:54.205Z,2.77
2023-02-28T10:25:40.654Z,2.97
2023-02-28T10:28:27.356Z,3.63
2023-02-28T10:31:18.251Z,3.67
2023-02-28T10:34:03.703Z,4.50
2023-02-28T10:36:50.289Z,4.20
2023-02-28T10:39:46.740Z,3.53
2023-02-28T10:42:32.848Z,2.60
2023-02-28T10:45:18.497Z,2.97
2023-02-28T10:48:16.104Z,3.27
2023-02-28T10:51:02.071Z,3.10
2023-02-28T10:54:01.048Z,2.70
2023-02-28T10:56:46.798Z,2.57
2023-02-28T10:59:32.452Z,2.47
2023-02-28T11:02:36.558Z,3.17
2023-02-28T11:05:26.777Z,2.90
2023-02-28T11:08:18.587Z,2.87
2023-02-28T11:11:06.753Z,3.03
2023-02-28T11:13:55.638Z,2.87
2023-02-28T11:16:40.634Z,2.70
2023-02-28T11:19:45.020Z,2.70
2023-02-28T11:22:33.760Z,2.43
2023-02-28T11:25:31.822Z,3.90
2023-02-28T11:28:34.967Z,2.60
2023-02-28T11:31:20.680Z,3.50
2023-02-28T11:34:25.290Z,3.27
2023-02-28T11:37:16.008Z,3.00
2023-02-28T11:40:01.475Z,2.50
2023-02-28T11:43:24.870Z,2.40
2023-02-28T11:46:31.598Z,2.17
2023-02-28T11:49:44.279Z,2.50
2023-02-28T11:52:41.578Z,2.40
2023-02-28T11:55:38.224Z,2.80
2023-02-28T11:58:48.678Z,2.80
2023-02-28T12:01:44.596Z,2.80
2023-02-28T12:05:11.629Z,3.50
2023-02-28T12:08:18.032Z,2.50
2023-02-28T12:11:22.333Z,2.57
2023-02-28T12:14:23.144Z,3.00
2023-02-28T12:17:33.628Z,2.80
2023-02-28T12:20:34.554Z,3.77
2023-02-28T12:23:44.586Z,2.90
2023-02-28T12:26:49.235Z,5.30
2023-02-28T12:29:43.238Z,3.20
2023-02-28T12:32:39.645Z,3.10
2023-02-28T12:39:12.099Z,4.70
2023-02-28T12:42:02.502Z,2.93
2023-02-28T12:44:52.666Z,3.37
2023-02-28T12:47:41.245Z,3.87
2023-02-28T12:50:27.665Z,8.77
2023-02-28T12:53:32.058Z,6.47
2023-02-28T12:56:51.407Z,4.90
2023-02-28T12:59:51.959Z,5.73
2023-02-28T13:03:05.278Z,3.30
2023-02-28T13:06:31.863Z,6.83
2023-02-28T13:09:18.582Z,3.90
2023-02-28T13:12:14.176Z,4.70
2023-02-28T13:15:26.823Z,5.57
2023-02-28T13:18:33.315Z,4.13
2023-02-28T13:21:30.838Z,4.10
2023-02-28T13:24:34.898Z,4.03
2023-02-28T13:27:36.030Z,4.33
2023-02-28T13:30:52.096Z,5.03
2023-02-28T13:33:57.508Z,3.90
2023-02-28T13:36:42.712Z,3.20
2023-02-28T13:39:37.700Z,3.70
2023-02-28T13:42:22.836Z,3.17
2023-02-28T13:45:08.231Z,3.03
2023-02-28T13:48:04.692Z,3.00
2023-02-28T13:50:50.507Z,5.33
2023-02-28T13:54:04.975Z,5.93
2023-02-28T13:56:55.601Z,3.83
2023-02-28T14:00:06.733Z,3.30
2023-02-28T14:03:15.268Z,3.23
2023-02-28T14:06:36.470Z,3.07
2023-02-28T14:09:39.033Z,4.23
2023-02-28T14:12:55.333Z,4.77
2023-02-28T14:15:57.129Z,5.20
2023-02-28T14:18:51.079Z,5.57
2023-02-28T14:21:44.135Z,3.47
2023-02-28T14:24:51.210Z,4.60
2023-02-28T14:27:50.590Z,8.50
2023-02-28T14:30:41.932Z,9.53
2023-02-28T14:33:50.941Z,7.83
2023-02-28T14:36:42.428Z,5.07
2023-02-28T14:39:29.818Z,5.20
2023-02-28T14:42:33.905Z,12.93
2023-02-28T14:45:20.940Z,11.70
2023-02-28T14:48:10.852Z,6.70
2023-02-28T14:51:01.254Z,4.20
2023-02-28T14:53:50.929Z,3.83
2023-02-28T14:56:39.413Z,3.67
2023-02-28T14:59:32.102Z,3.80
2023-02-28T15:02:19.887Z,4.10
2023-02-28T15:05:22.625Z,3.80
2023-02-28T15:08:15.211Z,3.77
2023-02-28T15:11:08.195Z,4.00
2023-02-28T15:13:55.678Z,3.50
2023-02-28T15:16:45.186Z,3.83
2023-02-28T15:19:33.560Z,4.63
2023-02-28T15:22:34.290Z,4.37
2023-02-28T15:25:22.490Z,4.17
2023-02-28T15:28:14.933Z,7.23
2023-02-28T15:31:04.213Z,6.10
2023-02-28T15:34:04.715Z,5.83
2023-02-28T15:36:50.261Z,3.90
2023-02-28T15:39:43.108Z,5.00
2023-02-28T15:42:30.188Z,4.37
2023-02-28T15:45:32.874Z,3.97
2023-02-28T15:48:26.451Z,4.27
2023-02-28T15:51:25.354Z,4.10
2023-02-28T15:54:20.220Z,4.17
2023-02-28T15:57:07.467Z,6.87
2023-02-28T16:00:02.914Z,4.40
2023-02-28T16:02:48.577Z,4.70
2023-02-28T16:05:33.714Z,4.43
2023-02-28T16:08:19.139Z,5.87
2023-02-28T16:11:04.743Z,3.83
2023-02-28T16:13:51.241Z,4.90
2023-02-28T16:16:44.061Z,3.70
2023-02-28T16:19:29.129Z,3.83
2023-02-28T16:22:14.693Z,5.20
2023-02-28T16:25:00.713Z,5.50
2023-02-28T16:27:50.279Z,4.20
2023-02-28T16:30:35.373Z,4.60
2023-02-28T16:33:20.889Z,4.27
2023-02-28T16:36:07.254Z,5.10
2023-02-28T16:38:52.265Z,7.83
2023-02-28T16:41:52.198Z,4.80
2023-02-28T16:44:37.439Z,4.83
2023-02-28T16:47:23.021Z,4.63
2023-02-28T16:50:21.125Z,4.50
2023-02-28T16:53:06.110Z,4.77
2023-02-28T16:55:51.485Z,4.80
2023-02-28T16:58:36.707Z,4.70
2023-02-28T17:01:22.179Z,5.03
2023-02-28T17:04:07.396Z,5.77
2023-02-28T17:06:52.757Z,5.40
2023-02-28T17:09:42.607Z,4.87
2023-02-28T17:12:28.752Z,5.57
2023-02-28T17:15:16.717Z,5.77
2023-02-28T17:18:02.554Z,5.30
2023-02-28T17:20:48.682Z,5.80
2023-02-28T17:23:33.666Z,5.73
2023-02-28T17:26:20.712Z,6.23
2023-02-28T17:29:11.710Z,6.43
2023-02-28T17:31:58.949Z,6.73
2023-02-28T17:34:46.064Z,7.23
2023-02-28T17:37:31.180Z,7.70
2023-02-28T17:40:19.851Z,8.17
2023-02-28T17:43:05.125Z,9.07
2023-02-28T17:45:50.636Z,9.07
2023-02-28T17:48:35.719Z,8.77
2023-02-28T17:51:23.280Z,8.03
2023-02-28T17:54:08.723Z,8.57
2023-02-28T17:56:54.125Z,9.60
2023-02-28T17:59:39.294Z,8.13
2023-02-28T18:02:24.298Z,8.23
2023-02-28T18:05:10.622Z,8.30
2023-02-28T18:07:55.552Z,8.43
2023-02-28T18:10:40.558Z,9.37
2023-02-28T18:13:27.437Z,9.90
2023-02-28T18:16:12.927Z,10.30
2023-02-28T18:18:58.131Z,11.10
2023-02-28T18:21:45.518Z,10.73
2023-02-28T18:24:30.926Z,10.10
2023-02-28T18:27:16.154Z,10.10
2023-02-28T18:30:01.936Z,17.60
2023-02-28T18:32:47.613Z,9.40
2023-02-28T18:35:32.740Z,8.33
2023-02-28T18:38:18.722Z,7.90
2023-02-28T18:41:06.326Z,8.03
2023-02-28T18:43:53.112Z,7.70
2023-02-28T18:46:38.368Z,8.93
2023-02-28T18:49:23.662Z,9.37
2023-02-28T18:52:08.831Z,10.20
2023-02-28T18:54:54.129Z,10.50
2023-02-28T18:57:39.538Z,10.60
2023-02-28T19:00:24.688Z,10.97
2023-02-28T19:03:09.918Z,11.47
2023-02-28T19:05:56.587Z,10.20
2023-02-28T19:08:42.179Z,10.17
2023-02-28T19:11:28.037Z,10.67
2023-02-28T19:14:13.102Z,10.57
2023-02-28T19:16:58.412Z,10.80
2023-02-28T19:19:43.253Z,11.63
2023-02-28T19:22:28.285Z,12.03
2023-02-28T19:25:13.323Z,14.90
2023-02-28T19:27:58.796Z,14.07
2023-02-28T19:30:48.654Z,14.47
2023-02-28T19:33:34.318Z,15.93
2023-02-28T19:36:20.800Z,15.33
2023-02-28T19:39:06.286Z,15.87
2023-02-28T19:41:51.513Z,14.20
2023-02-28T19:44:36.571Z,14.93
2023-02-28T19:47:21.849Z,16.33
2023-02-28T19:50:08.480Z,14.80
2023-02-28T19:52:53.476Z,13.77
2023-02-28T19:55:38.544Z,13.70
2023-02-28T19:58:23.879Z,13.70
2023-02-28T20:01:16.840Z,15.17
2023-02-28T20:04:02.486Z,14.37
2023-02-28T20:06:47.517Z,14.60
2023-02-28T20:09:33.052Z,14.73
2023-02-28T20:12:25.299Z,13.90
2023-02-28T20:15:10.619Z,12.80
2023-02-28T20:17:55.947Z,11.67
2023-02-28T20:20:41.272Z,12.47
2023-02-28T20:23:26.813Z,11.67
2023-02-28T20:26:12.885Z,13.53
2023-02-28T20:28:57.798Z,14.93
2023-02-28T20:31:43.005Z,16.97
2023-02-28T20:34:28.525Z,15.07
2023-02-28T20:37:13.837Z,14.27
2023-02-28T20:39:59.273Z,12.63
2023-02-28T20:42:44.722Z,13.00
2023-02-28T20:45:42.948Z,12.10
2023-02-28T20:48:30.092Z,12.87
2023-02-28T20:51:15.519Z,13.07
2023-02-28T20:54:00.847Z,13.10
2023-02-28T20:56:46.221Z,81.60
2023-02-28T20:59:31.608Z,21.80
2023-02-28T21:02:19.009Z,17.53
2023-02-28T21:05:04.370Z,15.73
2023-02-28T21:07:49.622Z,13.13
2023-02-28T21:10:34.814Z,14.53
2023-02-28T21:13:20.156Z,14.13
2023-02-28T21:16:07.748Z,13.37
2023-02-28T21:18:53.480Z,12.93
2023-02-28T21:21:41.880Z,13.33
2023-02-28T21:24:27.106Z,13.13
2023-02-28T21:27:12.296Z,13.60
2023-02-28T21:30:04.745Z,13.67
2023-02-28T21:32:50.776Z,13.70
2023-02-28T21:35:35.998Z,13.13
2023-02-28T21:38:21.353Z,11.93
2023-02-28T21:41:09.508Z,11.50
2023-02-28T21:43:55.958Z,12.80
2023-02-28T21:46:41.180Z,13.53
2023-02-28T21:49:26.432Z,15.00
2023-02-28T21:52:11.669Z,12.77
2023-02-28T21:54:56.447Z,12.90
2023-02-28T21:57:41.557Z,12.87
2023-02-28T22:00:26.997Z,13.00
2023-02-28T22:03:13.944Z,12.80
2023-02-28T22:05:58.737Z,12.53
2023-02-28T22:08:45.338Z,13.43
2023-02-28T22:11:30.665Z,12.67
2023-02-28T22:14:17.200Z,12.73
2023-02-28T22:17:02.393Z,13.17
2023-02-28T22:19:47.670Z,12.67
2023-02-28T22:22:32.623Z,12.37
2023-02-28T22:25:18.068Z,12.83
2023-02-28T22:28:02.918Z,12.70
2023-02-28T22:30:49.250Z,13.90
2023-02-28T22:33:34.117Z,13.07
2023-02-28T22:36:20.954Z,11.83
2023-02-28T22:39:06.064Z,12.47
2023-02-28T22:41:53.968Z,12.50
2023-02-28T22:44:38.807Z,14.47
2023-02-28T22:47:23.714Z,14.13
2023-02-28T22:50:09.237Z,14.03
2023-02-28T22:52:54.486Z,12.57
2023-02-28T22:55:39.272Z,12.43
2023-02-28T22:58:24.268Z,12.90
2023-02-28T23:01:12.788Z,13.47
2023-02-28T23:03:58.803Z,12.23
2023-02-28T23:06:44.580Z,13.63
2023-02-28T23:09:29.928Z,12.63
2023-02-28T23:12:15.429Z,14.07
2023-02-28T23:15:01.413Z,13.70
2023-02-28T23:17:48.295Z,13.83
2023-02-28T23:20:33.991Z,12.87
2023-02-28T23:23:19.438Z,12.30
2023-02-28T23:26:07.542Z,13.67
2023-02-28T23:28:53.311Z,13.10
2023-02-28T23:31:39.468Z,13.60
2023-02-28T23:34:25.133Z,12.90
2023-02-28T23:37:11.024Z,12.83
2023-02-28T23:39:55.922Z,11.90
2023-02-28T23:42:41.325Z,12.33
2023-02-28T23:45:26.586Z,12.27
2023-02-28T23:48:12.546Z,13.30
2023-02-28T23:51:03.150Z,13.77
2023-02-28T23:53:52.264Z,13.43
2023-02-28T23:56:37.600Z,13.10
2023-02-28T23:59:22.894Z,13.20
